createdAt,value
2022-11-17T00:00:42.517Z,8.91
2022-11-17T00:03:14.696Z,8.65
2022-11-17T00:05:41.216Z,8.59
2022-11-17T00:08:07.747Z,8.80
2022-11-17T00:10:37.239Z,8.54
2022-11-17T00:13:24.491Z,8.41
2022-11-17T00:15:53.103Z,8.40
2022-11-17T00:18:43.738Z,8.25
2022-11-17T00:21:23.550Z,8.28
2022-11-17T00:23:57.397Z,8.22
2022-11-17T00:26:32.301Z,8.40
2022-11-17T00:29:01.416Z,8.58
2022-11-17T00:31:48.822Z,8.50
2022-11-17T00:34:23.511Z,8.45
2022-11-17T00:36:52.052Z,8.41
2022-11-17T00:39:22.314Z,8.27
2022-11-17T00:41:49.265Z,8.44
2022-11-17T00:44:16.624Z,8.46
2022-11-17T00:46:43.168Z,8.63
2022-11-17T00:49:12.750Z,8.57
2022-11-17T00:51:39.239Z,8.57
2022-11-17T00:54:13.687Z,8.54
2022-11-17T00:56:40.727Z,8.48
2022-11-17T00:59:07.229Z,8.46
2022-11-17T01:01:33.852Z,8.39
2022-11-17T01:04:03.835Z,8.03
2022-11-17T01:06:34.284Z,8.17
2022-11-17T01:09:02.248Z,8.35
2022-11-17T01:11:29.653Z,8.35
2022-11-17T01:13:58.309Z,8.38
2022-11-17T01:16:25.708Z,8.47
2022-11-17T01:18:53.020Z,8.52
2022-11-17T01:21:26.890Z,8.53
2022-11-17T01:23:55.622Z,8.14
2022-11-17T01:26:26.027Z,8.25
2022-11-17T01:28:54.672Z,8.38
2022-11-17T01:31:26.410Z,8.35
2022-11-17T01:33:53.470Z,8.29
2022-11-17T01:36:23.282Z,8.30
2022-11-17T01:38:56.169Z,8.32
2022-11-17T01:41:28.123Z,8.34
2022-11-17T01:44:01.966Z,8.35
2022-11-17T01:46:38.023Z,8.25
2022-11-17T01:49:07.523Z,8.32
2022-11-17T01:51:40.289Z,8.36
2022-11-17T01:54:12.928Z,8.39
2022-11-17T01:56:43.330Z,8.38
2022-11-17T01:59:19.659Z,8.35
2022-11-17T02:01:57.086Z,8.02
2022-11-17T02:04:41.004Z,8.21
2022-11-17T02:07:23.418Z,7.62
2022-11-17T02:09:53.696Z,7.31
2022-11-17T02:12:24.139Z,7.57
2022-11-17T02:14:54.358Z,7.69
2022-11-17T02:17:23.278Z,7.80
2022-11-17T02:20:04.126Z,7.83
2022-11-17T02:22:57.202Z,7.83
2022-11-17T02:25:38.958Z,7.89
2022-11-17T02:28:24.305Z,7.88
2022-11-17T02:31:21.618Z,7.60
2022-11-17T02:34:33.499Z,7.72
2022-11-17T02:37:09.889Z,7.84
2022-11-17T02:39:49.980Z,7.75
2022-11-17T02:42:41.558Z,7.74
2022-11-17T02:45:18.404Z,7.82
2022-11-17T02:47:50.729Z,7.66
2022-11-17T02:50:27.884Z,7.66
2022-11-17T02:52:57.092Z,7.40
2022-11-17T02:55:33.177Z,7.33
2022-11-17T02:58:04.259Z,7.61
2022-11-17T03:00:35.676Z,7.54
2022-11-17T03:03:11.259Z,7.68
2022-11-17T03:06:05.612Z,7.76
2022-11-17T03:09:01.018Z,7.59
2022-11-17T03:11:45.578Z,7.67
2022-11-17T03:14:29.320Z,7.62
2022-11-17T03:17:03.181Z,7.33
2022-11-17T03:19:35.577Z,7.48
2022-11-17T03:22:41.713Z,7.36
2022-11-17T03:25:12.130Z,7.30
2022-11-17T03:27:44.146Z,7.06
2022-11-17T03:30:12.460Z,7.11
2022-11-17T03:32:44.223Z,7.12
2022-11-17T03:35:19.767Z,7.00
2022-11-17T03:37:53.560Z,6.90
2022-11-17T03:40:25.099Z,6.81
2022-11-17T03:42:55.658Z,7.01
2022-11-17T03:45:27.860Z,7.04
2022-11-17T03:48:12.422Z,7.19
2022-11-17T03:50:48.179Z,7.07
2022-11-17T03:53:15.028Z,6.94
2022-11-17T03:56:22.283Z,7.00
2022-11-17T03:59:14.861Z,7.09
2022-11-17T04:01:44.288Z,6.52
2022-11-17T04:04:21.744Z,6.63
2022-11-17T04:06:51.711Z,6.35
2022-11-17T04:09:24.049Z,6.44
2022-11-17T04:12:09.596Z,6.67
2022-11-17T04:14:54.539Z,6.57
2022-11-17T04:17:21.314Z,6.51
2022-11-17T04:19:50.748Z,6.67
2022-11-17T04:22:19.694Z,6.87
2022-11-17T04:24:46.204Z,6.94
2022-11-17T04:27:31.119Z,7.01
2022-11-17T04:30:00.330Z,6.82
2022-11-17T04:32:26.717Z,6.86
2022-11-17T04:34:53.196Z,6.89
2022-11-17T04:37:24.655Z,6.97
2022-11-17T04:39:53.476Z,6.42
2022-11-17T04:42:19.947Z,6.38
2022-11-17T04:44:46.419Z,6.52
2022-11-17T04:47:15.882Z,6.60
2022-11-17T04:49:42.374Z,6.66
2022-11-17T04:52:11.417Z,6.81
2022-11-17T04:54:38.085Z,6.44
2022-11-17T04:57:07.035Z,6.06
2022-11-17T04:59:33.536Z,6.16
2022-11-17T05:02:05.930Z,6.39
2022-11-17T05:04:51.424Z,6.14
2022-11-17T05:07:18.013Z,6.43
2022-11-17T05:09:47.258Z,6.41
2022-11-17T05:12:32.018Z,6.52
2022-11-17T05:14:58.545Z,6.27
2022-11-17T05:17:27.308Z,6.28
2022-11-17T05:19:53.860Z,6.46
2022-11-17T05:22:42.035Z,6.61
2022-11-17T05:25:11.590Z,6.57
2022-11-17T05:27:43.057Z,6.49
2022-11-17T05:30:10.395Z,6.63
2022-11-17T05:32:36.977Z,6.30
2022-11-17T05:35:06.944Z,6.48
2022-11-17T05:37:33.449Z,6.46
2022-11-17T05:39:59.941Z,6.57
2022-11-17T05:42:26.449Z,6.55
2022-11-17T05:44:55.278Z,6.81
2022-11-17T05:47:24.022Z,6.91
2022-11-17T05:49:50.546Z,6.72
2022-11-17T05:52:19.286Z,6.54
2022-11-17T05:54:45.815Z,6.76
2022-11-17T05:57:17.120Z,6.38
2022-11-17T05:59:48.892Z,6.54
2022-11-17T06:02:34.684Z,6.55
2022-11-17T06:05:08.978Z,6.89
2022-11-17T06:07:37.215Z,7.01
2022-11-17T06:10:09.280Z,7.05
2022-11-17T06:12:40.804Z,7.20
2022-11-17T06:15:09.787Z,7.27
2022-11-17T06:17:43.788Z,7.45
2022-11-17T06:20:18.138Z,7.40
2022-11-17T06:22:48.646Z,7.46
2022-11-17T06:25:18.725Z,7.54
2022-11-17T06:27:47.660Z,7.62
2022-11-17T06:30:19.505Z,7.67
2022-11-17T06:32:47.413Z,7.66
2022-11-17T06:35:16.442Z,7.73
2022-11-17T06:37:43.482Z,7.78
2022-11-17T06:40:10.403Z,7.83
2022-11-17T06:42:57.471Z,7.88
2022-11-17T06:45:26.988Z,7.81
2022-11-17T06:47:56.907Z,7.74
2022-11-17T06:50:23.417Z,7.78
2022-11-17T06:52:50.057Z,7.77
2022-11-17T06:55:16.890Z,7.83
2022-11-17T06:57:46.543Z,7.82
2022-11-17T07:00:18.225Z,7.94
2022-11-17T07:02:47.030Z,7.89
2022-11-17T07:05:15.832Z,7.92
2022-11-17T07:07:42.451Z,7.92
2022-11-17T07:10:11.719Z,7.70
2022-11-17T07:12:38.320Z,7.85
2022-11-17T07:15:10.158Z,7.92
2022-11-17T07:17:39.289Z,8.12
2022-11-17T07:20:06.174Z,8.12
2022-11-17T07:22:32.897Z,8.05
2022-11-17T07:25:01.945Z,8.25
2022-11-17T07:27:33.372Z,8.19
2022-11-17T07:30:02.271Z,8.15
2022-11-17T07:32:28.897Z,8.17
2022-11-17T07:34:55.465Z,8.15
2022-11-17T07:37:21.974Z,7.90
2022-11-17T07:39:48.741Z,7.82
2022-11-17T07:42:17.600Z,7.84
2022-11-17T07:44:44.172Z,7.68
2022-11-17T07:47:13.166Z,7.90
2022-11-17T07:49:39.738Z,7.65
2022-11-17T07:52:06.374Z,7.80
2022-11-17T07:54:35.247Z,7.86
2022-11-17T07:57:01.864Z,7.84
2022-11-17T07:59:28.422Z,7.96
2022-11-17T08:01:57.304Z,7.86
2022-11-17T08:04:23.952Z,7.84
2022-11-17T08:06:50.726Z,8.02
2022-11-17T08:09:19.593Z,7.92
2022-11-17T08:11:48.689Z,7.74
2022-11-17T08:14:15.329Z,7.92
2022-11-17T08:16:44.710Z,7.88
2022-11-17T08:19:14.600Z,7.96
2022-11-17T08:21:48.653Z,7.95
2022-11-17T08:24:15.476Z,7.92
2022-11-17T08:26:47.061Z,7.96
2022-11-17T08:29:13.681Z,7.99
2022-11-17T08:31:46.096Z,8.19
2022-11-17T08:34:12.786Z,8.24
2022-11-17T08:36:40.269Z,8.25
2022-11-17T08:39:06.889Z,8.45
2022-11-17T08:41:35.907Z,8.47
2022-11-17T08:44:04.990Z,8.43
2022-11-17T08:46:31.742Z,8.42
2022-11-17T08:48:58.368Z,8.51
2022-11-17T08:51:25.210Z,8.61
2022-11-17T08:53:54.203Z,8.61
2022-11-17T08:56:20.879Z,8.65
2022-11-17T08:58:52.406Z,8.65
2022-11-17T09:01:19.493Z,8.70
2022-11-17T09:03:47.742Z,8.63
2022-11-17T09:06:16.477Z,8.61
2022-11-17T09:08:48.736Z,8.64
2022-11-17T09:11:18.297Z,8.56
2022-11-17T09:13:47.163Z,8.80
2022-11-17T09:16:18.940Z,8.84
2022-11-17T09:18:47.992Z,8.97
2022-11-17T09:21:16.129Z,8.94
2022-11-17T09:23:42.972Z,8.69
2022-11-17T09:26:12.959Z,8.82
2022-11-17T09:28:41.234Z,8.90
2022-11-17T09:31:16.656Z,8.72
2022-11-17T09:33:46.798Z,8.81
2022-11-17T09:36:19.164Z,8.89
2022-11-17T09:38:46.945Z,8.82
2022-11-17T09:41:18.728Z,8.94
2022-11-17T09:44:17.575Z,9.01
2022-11-17T09:47:10.767Z,8.96
2022-11-17T09:49:59.463Z,8.96
2022-11-17T09:52:36.127Z,9.19
2022-11-17T09:55:16.617Z,9.37
2022-11-17T09:57:53.258Z,9.21
2022-11-17T10:00:28.589Z,9.32
2022-11-17T10:02:58.297Z,9.31
2022-11-17T10:05:27.740Z,9.33
2022-11-17T10:08:00.019Z,9.33
2022-11-17T10:10:37.458Z,9.55
2022-11-17T10:13:13.954Z,9.56
2022-11-17T10:15:49.448Z,9.59
2022-11-17T10:18:16.887Z,9.85
2022-11-17T10:20:44.791Z,10.21
2022-11-17T10:23:20.383Z,10.21
2022-11-17T10:25:49.530Z,9.96
2022-11-17T10:28:31.514Z,9.67
2022-11-17T10:31:01.917Z,9.70
2022-11-17T10:33:40.673Z,9.77
2022-11-17T10:36:18.049Z,9.98
2022-11-17T10:38:56.458Z,9.56
2022-11-17T10:41:28.738Z,9.57
2022-11-17T10:44:18.273Z,9.56
2022-11-17T10:47:07.992Z,9.71
2022-11-17T10:49:36.556Z,9.71
2022-11-17T10:52:09.151Z,9.82
2022-11-17T10:54:38.706Z,9.88
2022-11-17T10:57:09.090Z,9.64
2022-11-17T10:59:46.237Z,9.65
2022-11-17T11:02:36.332Z,9.68
2022-11-17T11:05:07.958Z,9.86
2022-11-17T11:07:37.208Z,9.92
2022-11-17T11:10:15.725Z,9.88
2022-11-17T11:12:50.183Z,9.85
2022-11-17T11:15:20.485Z,9.47
2022-11-17T11:17:47.509Z,9.93
2022-11-17T11:20:24.224Z,10.21
2022-11-17T11:23:12.152Z,10.20
2022-11-17T11:25:51.406Z,10.04
2022-11-17T11:28:55.136Z,10.04
2022-11-17T11:31:47.915Z,10.01
2022-11-17T11:34:23.792Z,10.10
2022-11-17T11:37:16.452Z,9.89
2022-11-17T11:40:03.018Z,10.07
2022-11-17T11:42:41.618Z,10.28
2022-11-17T11:45:36.957Z,10.38
2022-11-17T11:48:20.854Z,9.84
2022-11-17T11:51:07.938Z,10.21
2022-11-17T11:53:57.779Z,10.04
2022-11-17T11:56:38.579Z,9.99
2022-11-17T11:59:15.864Z,10.27
2022-11-17T12:01:56.134Z,10.22
2022-11-17T12:04:30.416Z,10.24
2022-11-17T12:07:12.924Z,9.93
2022-11-17T12:10:28.493Z,10.01
2022-11-17T12:12:55.291Z,10.09
2022-11-17T12:15:24.087Z,10.37
2022-11-17T12:18:00.324Z,10.27
2022-11-17T12:20:41.933Z,10.29
2022-11-17T12:23:45.680Z,10.03
2022-11-17T12:26:41.941Z,10.31
2022-11-17T12:29:21.013Z,10.17
2022-11-17T12:31:55.161Z,10.23
2022-11-17T12:34:21.744Z,10.11
2022-11-17T12:37:15.253Z,9.90
2022-11-17T12:39:56.584Z,9.84
2022-11-17T12:42:23.500Z,10.07
2022-11-17T12:44:56.064Z,10.34
2022-11-17T12:47:25.955Z,10.22
2022-11-17T12:50:19.881Z,10.21
2022-11-17T12:53:17.442Z,10.09
2022-11-17T12:55:58.468Z,10.04
2022-11-17T12:58:25.257Z,9.95
2022-11-17T13:01:07.367Z,9.91
2022-11-17T13:03:50.313Z,10.30
2022-11-17T13:06:34.818Z,10.48
2022-11-17T13:09:08.334Z,10.53
2022-11-17T13:11:37.476Z,10.57
2022-11-17T13:14:15.062Z,10.67
2022-11-17T13:16:51.653Z,10.52
2022-11-17T13:19:37.768Z,10.52
2022-11-17T13:22:19.211Z,10.58
2022-11-17T13:24:50.595Z,10.59
2022-11-17T13:27:31.408Z,10.52
2022-11-17T13:30:15.236Z,10.69
2022-11-17T13:32:43.026Z,10.67
2022-11-17T13:35:32.508Z,10.79
2022-11-17T13:38:18.067Z,10.77
2022-11-17T13:40:49.904Z,10.92
2022-11-17T13:43:20.644Z,11.06
2022-11-17T13:45:51.089Z,11.13
2022-11-17T13:48:43.506Z,10.97
2022-11-17T13:51:28.311Z,10.92
2022-11-17T13:54:04.249Z,11.04
2022-11-17T13:56:34.997Z,11.06
2022-11-17T13:59:06.487Z,10.84
2022-11-17T14:01:33.480Z,10.81
2022-11-17T14:04:23.849Z,10.71
2022-11-17T14:07:01.561Z,10.63
2022-11-17T14:09:34.643Z,10.65
2022-11-17T14:12:08.603Z,10.77
2022-11-17T14:14:47.230Z,10.88
2022-11-17T14:17:22.287Z,10.90
2022-11-17T14:19:51.432Z,10.88
2022-11-17T14:22:26.168Z,10.77
2022-11-17T14:24:57.300Z,10.62
2022-11-17T14:27:26.818Z,10.57
2022-11-17T14:29:53.366Z,10.73
2022-11-17T14:32:19.887Z,11.01
2022-11-17T14:34:46.419Z,11.12
2022-11-17T14:37:13.072Z,11.12
2022-11-17T14:39:47.048Z,11.20
2022-11-17T14:42:16.055Z,11.22
2022-11-17T14:44:42.480Z,10.94
2022-11-17T14:47:09.126Z,11.04
2022-11-17T14:49:38.067Z,11.10
2022-11-17T14:52:07.052Z,11.14
2022-11-17T14:54:33.588Z,11.13
2022-11-17T14:57:00.157Z,11.07
2022-11-17T14:59:28.876Z,11.00
2022-11-17T15:01:58.092Z,10.97
2022-11-17T15:04:49.592Z,11.01
2022-11-17T15:07:19.030Z,11.01
2022-11-17T15:09:45.812Z,10.94
2022-11-17T15:12:12.418Z,10.92
2022-11-17T15:14:39.569Z,10.90
2022-11-17T15:17:13.845Z,10.86
2022-11-17T15:20:00.213Z,10.83
2022-11-17T15:22:56.808Z,10.77
2022-11-17T15:26:24.017Z,10.74
2022-11-17T15:28:50.704Z,10.60
2022-11-17T15:31:19.470Z,10.64
2022-11-17T15:33:47.488Z,10.66
2022-11-17T15:36:16.508Z,10.63
2022-11-17T15:38:43.396Z,10.64
2022-11-17T15:41:11.907Z,10.59
2022-11-17T15:43:40.941Z,10.55
2022-11-17T15:46:11.351Z,10.49
2022-11-17T15:48:43.062Z,10.39
2022-11-17T15:51:12.229Z,10.29
2022-11-17T15:53:39.642Z,10.37
2022-11-17T15:56:12.368Z,10.38
2022-11-17T15:58:40.518Z,10.39
2022-11-17T16:01:11.282Z,10.36
2022-11-17T16:03:38.819Z,10.40
2022-11-17T16:06:05.963Z,10.31
2022-11-17T16:08:35.069Z,10.28
2022-11-17T16:11:01.814Z,10.34
2022-11-17T16:13:31.770Z,10.19
2022-11-17T16:16:00.851Z,10.27
2022-11-17T16:18:27.288Z,10.32
2022-11-17T16:21:00.120Z,10.20
2022-11-17T16:23:32.275Z,10.08
2022-11-17T16:25:58.822Z,9.85
2022-11-17T16:28:25.394Z,9.99
2022-11-17T16:30:52.072Z,10.20
2022-11-17T16:33:18.607Z,10.10
2022-11-17T16:35:45.992Z,10.05
2022-11-17T16:38:17.002Z,10.15
2022-11-17T16:40:44.114Z,9.88
2022-11-17T16:43:12.371Z,9.93
2022-11-17T16:45:45.934Z,9.89
2022-11-17T16:48:12.920Z,9.95
2022-11-17T16:50:47.397Z,9.92
2022-11-17T16:53:14.448Z,10.04
2022-11-17T16:55:40.987Z,9.89
2022-11-17T16:58:07.775Z,9.95
2022-11-17T17:00:37.162Z,10.04
2022-11-17T17:03:03.972Z,9.92
2022-11-17T17:05:30.748Z,9.93
2022-11-17T17:07:57.356Z,10.00
2022-11-17T17:10:26.716Z,9.90
2022-11-17T17:12:53.261Z,10.07
2022-11-17T17:15:21.879Z,9.93
2022-11-17T17:17:48.694Z,10.02
2022-11-17T17:20:15.533Z,10.10
2022-11-17T17:22:42.064Z,10.12
2022-11-17T17:25:11.765Z,10.05
2022-11-17T17:27:38.301Z,10.02
2022-11-17T17:30:07.803Z,9.93
2022-11-17T17:32:36.841Z,9.92
2022-11-17T17:35:03.576Z,10.06
2022-11-17T17:37:33.238Z,9.98
2022-11-17T17:40:02.355Z,10.04
2022-11-17T17:42:29.075Z,9.73
2022-11-17T17:44:57.860Z,9.91
2022-11-17T17:47:24.423Z,10.04
2022-11-17T17:49:53.224Z,9.96
2022-11-17T17:52:19.841Z,10.01
2022-11-17T17:54:48.938Z,10.02
2022-11-17T17:57:15.372Z,10.15
2022-11-17T17:59:44.366Z,10.13
2022-11-17T18:02:13.245Z,10.17
2022-11-17T18:04:42.085Z,10.05
2022-11-17T18:07:10.877Z,9.98
2022-11-17T18:09:40.528Z,9.98
2022-11-17T18:12:09.669Z,10.04
2022-11-17T18:14:36.114Z,9.85
2022-11-17T18:17:04.981Z,9.96
2022-11-17T18:19:33.235Z,10.04
2022-11-17T18:22:00.123Z,10.13
2022-11-17T18:24:26.707Z,10.13
2022-11-17T18:26:53.279Z,10.18
2022-11-17T18:29:22.068Z,10.23
2022-11-17T18:31:53.350Z,10.31
2022-11-17T18:34:23.768Z,10.16
2022-11-17T18:36:52.117Z,10.30
2022-11-17T18:39:19.423Z,10.17
2022-11-17T18:41:46.090Z,10.28
2022-11-17T18:44:14.164Z,10.34
2022-11-17T18:46:41.054Z,10.11
2022-11-17T18:49:07.660Z,10.11
2022-11-17T18:51:37.160Z,10.11
2022-11-17T18:54:04.169Z,10.10
2022-11-17T18:56:35.858Z,9.93
2022-11-17T18:59:02.901Z,9.99
2022-11-17T19:01:33.988Z,10.00
2022-11-17T19:04:01.137Z,9.92
2022-11-17T19:06:30.114Z,9.69
2022-11-17T19:09:01.442Z,9.70
2022-11-17T19:11:30.797Z,9.77
2022-11-17T19:13:59.100Z,9.74
2022-11-17T19:16:28.628Z,9.53
2022-11-17T19:18:56.544Z,9.69
2022-11-17T19:21:26.328Z,9.69
2022-11-17T19:23:57.176Z,9.51
2022-11-17T19:26:33.745Z,9.56
2022-11-17T19:29:16.724Z,9.51
2022-11-17T19:31:44.436Z,9.60
2022-11-17T19:34:13.501Z,9.48
2022-11-17T19:36:40.045Z,9.42
2022-11-17T19:39:06.815Z,9.18
2022-11-17T19:41:40.875Z,9.11
2022-11-17T19:44:08.791Z,9.27
2022-11-17T19:46:39.165Z,9.03
2022-11-17T19:49:07.603Z,9.18
2022-11-17T19:51:38.508Z,9.31
2022-11-17T19:54:07.867Z,9.30
2022-11-17T19:56:35.346Z,9.02
2022-11-17T19:59:04.700Z,8.95
2022-11-17T20:01:33.155Z,8.94
2022-11-17T20:04:00.900Z,9.23
2022-11-17T20:06:29.958Z,9.29
2022-11-17T20:09:01.356Z,9.48
2022-11-17T20:11:30.441Z,9.57
2022-11-17T20:13:56.997Z,9.48
2022-11-17T20:16:31.305Z,9.47
2022-11-17T20:19:02.442Z,9.54
2022-11-17T20:21:29.983Z,9.53
2022-11-17T20:24:01.158Z,9.51
2022-11-17T20:26:33.875Z,9.35
2022-11-17T20:29:00.908Z,9.48
2022-11-17T20:31:36.603Z,9.27
2022-11-17T20:34:06.100Z,9.42
2022-11-17T20:36:37.560Z,9.41
2022-11-17T20:39:07.901Z,9.39
2022-11-17T20:41:34.909Z,9.36
2022-11-17T20:44:04.998Z,9.38
2022-11-17T20:46:34.955Z,9.45
2022-11-17T20:49:10.720Z,9.27
2022-11-17T20:51:39.506Z,9.30
2022-11-17T20:54:09.559Z,9.31
2022-11-17T20:56:38.587Z,9.41
2022-11-17T20:59:07.515Z,9.53
2022-11-17T21:01:34.868Z,9.59
2022-11-17T21:04:01.426Z,9.55
2022-11-17T21:06:29.736Z,9.56
2022-11-17T21:08:59.358Z,9.38
2022-11-17T21:11:44.561Z,9.41
2022-11-17T21:14:12.964Z,9.55
2022-11-17T21:16:45.685Z,9.56
2022-11-17T21:19:13.882Z,9.64
2022-11-17T21:21:40.665Z,9.53
2022-11-17T21:24:09.731Z,9.53
2022-11-17T21:26:36.304Z,9.45
2022-11-17T21:29:06.480Z,9.49
2022-11-17T21:31:38.907Z,9.50
2022-11-17T21:34:06.628Z,9.47
2022-11-17T21:36:37.260Z,9.39
2022-11-17T21:39:04.815Z,9.44
2022-11-17T21:41:35.445Z,9.38
2022-11-17T21:44:03.246Z,9.40
2022-11-17T21:46:32.944Z,9.42
2022-11-17T21:49:00.684Z,9.26
2022-11-17T21:51:33.182Z,9.21
2022-11-17T21:54:05.093Z,9.01
2022-11-17T21:56:34.805Z,9.06
2022-11-17T21:59:09.581Z,9.22
2022-11-17T22:01:39.280Z,9.34
2022-11-17T22:04:08.145Z,9.40
2022-11-17T22:06:41.050Z,9.41
2022-11-17T22:09:10.047Z,9.36
2022-11-17T22:11:38.165Z,9.36
2022-11-17T22:14:08.369Z,9.37
2022-11-17T22:16:44.750Z,9.33
2022-11-17T22:19:12.826Z,9.11
2022-11-17T22:21:43.129Z,9.22
2022-11-17T22:24:13.354Z,9.04
2022-11-17T22:26:46.188Z,9.04
2022-11-17T22:29:18.681Z,9.14
2022-11-17T22:31:47.121Z,9.17
2022-11-17T22:34:14.282Z,9.22
2022-11-17T22:36:40.942Z,9.08
2022-11-17T22:39:10.078Z,8.82
2022-11-17T22:41:36.535Z,8.87
2022-11-17T22:44:03.500Z,8.90
2022-11-17T22:46:30.013Z,8.73
2022-11-17T22:48:56.682Z,8.64
2022-11-17T22:51:42.991Z,8.75
2022-11-17T22:54:09.715Z,8.86
2022-11-17T22:56:39.367Z,8.87
2022-11-17T22:59:06.060Z,8.84
2022-11-17T23:01:32.620Z,8.90
2022-11-17T23:04:01.318Z,8.90
2022-11-17T23:06:30.519Z,8.86
2022-11-17T23:08:58.280Z,8.78
2022-11-17T23:11:36.958Z,8.64
2022-11-17T23:14:31.643Z,8.61
2022-11-17T23:16:58.307Z,8.63
2022-11-17T23:19:25.089Z,8.70
2022-11-17T23:21:53.953Z,8.71
2022-11-17T23:24:22.866Z,8.58
2022-11-17T23:26:54.298Z,8.61
2022-11-17T23:29:25.679Z,8.61
2022-11-17T23:31:52.463Z,8.55
2022-11-17T23:34:19.197Z,8.40
2022-11-17T23:36:45.911Z,8.39
2022-11-17T23:39:12.600Z,8.42
2022-11-17T23:41:41.627Z,8.42
2022-11-17T23:44:08.121Z,8.44
2022-11-17T23:46:37.099Z,8.44
2022-11-17T23:49:06.073Z,8.54
2022-11-17T23:51:32.934Z,8.51
2022-11-17T23:54:01.116Z,8.46
2022-11-17T23:56:27.729Z,8.11
2022-11-17T23:58:56.593Z,8.15
